Time;durP1;ratioP1;P1;durP2;ratioP2;P2;SDS_P1;SDS_P2;PMS_P1;PMS_P2;Temp;Humidity;BMP_temperature;BMP_pressure;BME280_temperature;BME280_humidity;BME280_pressure;Samples;Min_cycle;Max_cycle;Signal;HPM_P1;HPM_P2
2021/06/10 00:02:24;;;;;;;9.65;8.85;;;;;;;23.16;43.18;101986.19;6145355;28;20258;-50
2021/06/10 00:05:45;;;;;;;10.50;9.48;;;;;;;23.00;43.53;101978.84;6144627;28;20262;-48
2021/06/10 00:09:06;;;;;;;8.25;7.65;;;;;;;22.94;43.67;101983.56;6142740;28;20219;-53
2021/06/10 00:12:28;;;;;;;9.55;8.70;;;;;;;23.04;43.61;101978.75;6152284;28;20607;-52
2021/06/10 00:15:48;;;;;;;9.07;8.38;;;;;;;22.99;43.98;101979.78;6135146;28;20636;-52
2021/06/10 00:19:12;;;;;;;10.52;9.73;;;;;;;22.89;44.28;101981.09;6144284;28;20230;-53
2021/06/10 00:22:32;;;;;;;9.73;8.93;;;;;;;22.75;44.65;101983.47;6141375;28;20242;-52
2021/06/10 00:25:53;;;;;;;9.00;7.70;;;;;;;22.78;44.97;101981.56;6139122;28;20238;-54
2021/06/10 00:29:15;;;;;;;8.85;8.15;;;;;;;22.71;45.15;101982.72;6134892;28;20249;-53
2021/06/10 00:32:36;;;;;;;9.80;8.95;;;;;;;22.74;45.21;101974.66;6140866;28;20230;-54
2021/06/10 00:35:57;;;;;;;9.13;8.43;;;;;;;22.52;45.74;101973.81;6144410;28;20222;-53
2021/06/10 00:39:17;;;;;;;9.93;9.02;;;;;;;22.47;45.74;101974.00;6143566;28;20223;-55
2021/06/10 00:42:38;;;;;;;10.27;9.32;;;;;;;22.32;46.33;101971.97;6143481;28;20254;-54
2021/06/10 00:46:00;;;;;;;11.25;10.25;;;;;;;22.38;45.72;101971.72;6149442;28;20239;-55
2021/06/10 00:49:20;;;;;;;10.60;9.23;;;;;;;22.17;46.25;101961.00;6150391;28;20238;-55
2021/06/10 00:52:42;;;;;;;11.73;10.63;;;;;;;22.26;45.98;101962.47;6140427;28;20234;-53
2021/06/10 00:56:05;;;;;;;9.73;8.88;;;;;;;22.26;45.91;101958.94;6144517;28;20222;-54
2021/06/10 00:59:26;;;;;;;9.80;9.02;;;;;;;22.18;46.43;101954.78;6146725;28;21183;-56
2021/06/10 01:02:47;;;;;;;9.65;8.82;;;;;;;21.74;47.74;101965.31;6150049;28;20227;-53
2021/06/10 01:06:19;;;;;;;9.20;8.50;;;;;;;21.86;47.36;101961.31;6144343;28;20257;-53
2021/06/10 01:09:45;;;;;;;9.35;8.52;;;;;;;22.17;46.32;101949.53;6149598;28;20679;-53
2021/06/10 01:13:14;;;;;;;9.48;8.73;;;;;;;21.98;47.13;101954.69;6153996;28;20270;-53
2021/06/10 01:16:37;;;;;;;10.43;9.43;;;;;;;21.88;47.26;101963.91;6150695;28;20241;-54
2021/06/10 01:20:08;;;;;;;10.20;9.18;;;;;;;21.61;47.91;101964.03;6146472;28;20230;-53
2021/06/10 01:24:05;;;;;;;8.40;7.70;;;;;;;21.55;48.32;101961.63;6139826;28;20612;-51
2021/06/10 01:27:28;;;;;;;9.90;9.10;;;;;;;21.82;47.59;101960.56;6136070;28;20636;-49
2021/06/10 01:30:51;;;;;;;9.00;8.20;;;;;;;21.49;48.64;101956.56;6139153;28;20243;-52
2021/06/10 01:34:13;;;;;;;10.65;9.65;;;;;;;21.47;48.50;101958.41;6149389;28;20226;-51
2021/06/10 01:37:36;;;;;;;9.23;8.38;;;;;;;21.40;48.68;101961.25;6145670;28;20231;-51
2021/06/10 01:40:58;;;;;;;9.10;8.25;;;;;;;21.53;48.12;101947.56;6148422;28;20317;-51
2021/06/10 01:44:21;;;;;;;9.02;8.32;;;;;;;21.39;48.38;101956.84;6139089;28;20226;-55
2021/06/10 01:47:44;;;;;;;8.95;8.32;;;;;;;21.44;47.87;101946.09;6142276;28;21024;-53
2021/06/10 01:51:05;;;;;;;10.70;9.80;;;;;;;21.38;48.00;101939.25;6151897;28;20333;-55
2021/06/10 01:54:26;;;;;;;8.32;7.72;;;;;;;21.15;49.10;101947.13;6146269;28;20230;-51
2021/06/10 01:57:47;;;;;;;9.25;8.45;;;;;;;21.19;48.52;101932.84;6147681;28;20837;-55
2021/06/10 02:01:10;;;;;;;8.85;8.13;;;;;;;21.23;48.67;101929.19;6144805;28;20330;-54
2021/06/10 02:04:32;;;;;;;10.13;9.23;;;;;;;21.09;48.68;101932.31;6146995;28;20238;-55
2021/06/10 02:07:53;;;;;;;9.68;8.88;;;;;;;21.22;48.00;101932.75;6152207;28;20908;-51
2021/06/10 02:11:23;;;;;;;9.15;8.45;;;;;;;21.31;47.71;101921.84;6143429;28;20354;-54
2021/06/10 02:14:44;;;;;;;10.70;9.77;;;;;;;21.24;47.87;101915.00;6138918;28;20317;-55
2021/06/10 02:18:06;;;;;;;9.25;8.55;;;;;;;21.15;48.56;101920.63;6151458;28;20238;-52
2021/06/10 02:21:28;;;;;;;10.35;8.93;;;;;;;20.93;48.81;101915.25;6147863;28;20234;-50
2021/06/10 02:24:49;;;;;;;9.35;8.65;;;;;;;21.00;48.53;101919.41;6140647;28;20235;-53
2021/06/10 02:28:09;;;;;;;9.35;8.65;;;;;;;20.82;49.05;101923.56;6148799;28;20609;-50
2021/06/10 02:31:30;;;;;;;9.27;8.38;;;;;;;20.96;48.55;101926.59;6162707;28;20230;-50
2021/06/10 02:34:52;;;;;;;8.43;7.80;;;;;;;20.64;49.53;101923.25;6140919;28;20234;-51
2021/06/10 02:38:13;;;;;;;9.80;8.90;;;;;;;20.78;49.36;101921.94;6141120;28;20821;-51
2021/06/10 02:41:37;;;;;;;9.38;8.55;;;;;;;20.65;49.68;101916.22;6145453;28;20230;-50
2021/06/10 02:44:58;;;;;;;10.27;9.27;;;;;;;20.52;49.99;101915.72;6146119;28;20235;-52
2021/06/10 02:48:19;;;;;;;10.98;9.98;;;;;;;20.42;50.44;101919.59;6147760;28;20239;-50
2021/06/10 02:51:41;;;;;;;10.88;9.75;;;;;;;20.31;50.92;101908.50;6142387;28;20488;-54
2021/06/10 02:55:03;;;;;;;8.68;8.07;;;;;;;20.43;50.62;101913.38;6165273;28;20223;-51
2021/06/10 02:58:24;;;;;;;32.20;29.58;;;;;;;20.21;51.62;101908.78;6148905;28;20239;-53
2021/06/10 03:01:46;;;;;;;24.27;22.27;;;;;;;20.37;50.93;101911.78;6146416;28;20638;-53
2021/06/10 03:05:08;;;;;;;14.38;13.23;;;;;;;20.57;50.59;101912.91;6146933;28;20235;-54
2021/06/10 03:08:30;;;;;;;25.98;23.98;;;;;;;20.65;50.35;101911.78;6149951;28;20242;-54
2021/06/10 03:11:51;;;;;;;20.70;19.10;;;;;;;20.42;51.09;101919.59;6142961;28;21208;-50
2021/06/10 03:15:12;;;;;;;12.30;11.20;;;;;;;20.14;51.80;101912.56;6141788;28;20238;-55
2021/06/10 03:18:34;;;;;;;11.82;10.80;;;;;;;20.53;51.21;101916.56;6138503;28;20238;-53
2021/06/10 03:21:55;;;;;;;11.15;10.25;;;;;;;20.68;50.40;101918.75;6146735;28;20634;-52
2021/06/10 03:25:17;;;;;;;12.30;11.20;;;;;;;20.76;50.15;101919.38;6151351;28;20474;-55
2021/06/10 03:28:39;;;;;;;12.38;11.18;;;;;;;20.46;50.96;101911.50;6145054;28;20258;-53
2021/06/10 03:31:59;;;;;;;10.30;9.50;;;;;;;20.35;51.50;101918.06;6146288;28;20605;-50
2021/06/10 03:35:20;;;;;;;11.32;10.32;;;;;;;20.52;50.85;101921.00;6138791;28;20242;-54
2021/06/10 03:38:42;;;;;;;10.07;9.07;;;;;;;20.31;51.54;101911.13;6153737;28;20223;-52
2021/06/10 03:42:05;;;;;;;9.95;9.15;;;;;;;20.55;50.98;101920.03;6149502;28;20238;-54
2021/06/10 03:45:26;;;;;;;9.45;8.65;;;;;;;20.67;50.28;101919.66;6147048;28;20229;-53
2021/06/10 03:48:47;;;;;;;10.75;9.70;;;;;;;20.92;49.42;101922.34;6147092;28;20373;-54
2021/06/10 03:52:08;;;;;;;13.82;12.52;;;;;;;20.58;50.17;101915.50;6143909;28;20291;-52
2021/06/10 03:55:28;;;;;;;8.60;7.95;;;;;;;20.61;50.05;101915.44;6146823;28;20432;-51
2021/06/10 03:58:50;;;;;;;10.20;9.20;;;;;;;20.65;49.83;101916.22;6127508;28;21620;-53
2021/06/10 04:02:10;;;;;;;9.25;8.40;;;;;;;20.63;50.16;101912.75;6143469;28;20519;-53
2021/06/10 04:05:31;;;;;;;9.60;8.80;;;;;;;20.75;49.54;101914.13;6148258;28;20239;-54
2021/06/10 04:08:52;;;;;;;9.93;8.98;;;;;;;20.93;48.98;101910.81;6142775;28;20242;-51
2021/06/10 04:12:13;;;;;;;10.63;9.73;;;;;;;21.07;48.58;101912.09;6145640;28;20238;-49
2021/06/10 04:15:35;;;;;;;10.48;9.50;;;;;;;21.29;47.71;101910.44;6150727;28;20234;-52
2021/06/10 04:18:56;;;;;;;10.57;9.57;;;;;;;21.20;47.77;101918.69;6143701;28;21241;-55
2021/06/10 04:22:17;;;;;;;9.30;8.60;;;;;;;21.09;48.12;101918.22;6148140;28;21938;-49
2021/06/10 04:25:37;;;;;;;10.07;9.27;;;;;;;21.09;48.13;101918.22;6144551;28;20325;-52
2021/06/10 04:28:57;;;;;;;9.07;8.27;;;;;;;20.93;47.96;101920.53;6150274;28;20223;-53
2021/06/10 04:32:19;;;;;;;9.45;8.55;;;;;;;20.99;47.67;101915.03;6116633;28;20265;-55
2021/06/10 04:35:39;;;;;;;9.45;8.65;;;;;;;21.16;47.16;101917.09;6147076;28;20235;-55
2021/06/10 04:39:01;;;;;;;8.52;7.90;;;;;;;21.30;46.52;101920.09;6140054;28;20271;-48
2021/06/10 04:42:22;;;;;;;9.02;8.23;;;;;;;21.37;45.60;101926.91;6144872;28;20351;-54
2021/06/10 04:45:42;;;;;;;8.52;7.82;;;;;;;21.31;45.97;101920.97;6149473;28;20608;-52
2021/06/10 04:49:05;;;;;;;8.25;7.45;;;;;;;21.12;46.89;101932.22;6141203;28;21073;-52
2021/06/10 04:52:25;;;;;;;7.85;7.25;;;;;;;21.14;46.78;101929.53;6145093;28;20616;-53
2021/06/10 04:55:46;;;;;;;7.75;7.05;;;;;;;21.31;46.33;101924.47;6141892;28;20231;-49
2021/06/10 04:59:07;;;;;;;8.27;7.57;;;;;;;21.53;45.53;101929.00;6148090;28;20235;-52
2021/06/10 05:02:27;;;;;;;8.00;7.40;;;;;;;21.58;45.24;101927.06;6148713;28;20261;-49
2021/06/10 05:05:50;;;;;;;8.38;7.57;;;;;;;21.37;46.05;101932.19;6142070;28;20234;-52
2021/06/10 05:09:11;;;;;;;8.45;7.63;;;;;;;21.85;45.05;101924.25;6130064;28;20324;-52
2021/06/10 05:12:31;;;;;;;8.32;7.70;;;;;;;21.55;45.55;101924.50;6147584;28;20314;-55
2021/06/10 05:16:02;;;;;;;8.35;7.28;;;;;;;21.96;44.75;101920.25;6148010;28;20544;-51
2021/06/10 05:19:46;;;;;;;7.38;6.70;;;;;;;22.08;44.61;101926.91;6137066;28;20341;-49
2021/06/10 05:23:08;;;;;;;9.45;7.90;;;;;;;22.01;44.63;101923.59;6132713;28;20322;-52
2021/06/10 05:26:28;;;;;;;8.10;7.30;;;;;;;22.06;45.04;101926.06;6150234;28;20227;-53
2021/06/10 05:29:48;;;;;;;8.95;8.07;;;;;;;21.92;45.37;101929.25;6147879;28;20231;-54
2021/06/10 05:33:09;;;;;;;7.43;6.80;;;;;;;21.84;44.77;101923.41;6143283;28;20425;-53
2021/06/10 05:36:29;;;;;;;9.20;7.78;;;;;;;22.02;44.54;101916.50;6145797;28;20238;-52
2021/06/10 05:39:51;;;;;;;7.90;6.28;;;;;;;22.50;43.81;101920.78;6141640;28;20234;-61
2021/06/10 05:43:11;;;;;;;7.40;6.78;;;;;;;22.47;43.76;101923.56;6139210;28;20239;-61
2021/06/10 05:46:32;;;;;;;9.02;8.18;;;;;;;22.47;43.56;101910.31;6133537;28;20230;-62
2021/06/10 05:49:53;;;;;;;8.85;8.15;;;;;;;22.27;44.78;101926.16;6133358;28;20254;-62
2021/06/10 05:53:15;;;;;;;7.85;7.05;;;;;;;22.12;44.58;101914.34;6141944;28;20234;-60
2021/06/10 05:56:37;;;;;;;8.00;7.22;;;;;;;22.36;43.94;101916.03;6138300;28;20238;-61
2021/06/10 05:59:58;;;;;;;8.35;7.47;;;;;;;22.60;43.53;101922.13;6143697;28;20548;-61
2021/06/10 06:03:18;;;;;;;10.27;9.27;;;;;;;22.76;43.37;101919.69;6142259;28;20235;-60
2021/06/10 06:06:39;;;;;;;10.63;8.48;;;;;;;22.58;43.53;101913.34;6138302;28;20234;-60
2021/06/10 06:10:00;;;;;;;9.57;8.70;;;;;;;22.92;42.50;101911.91;6140759;28;20321;-58
2021/06/10 06:13:31;;;;;;;7.63;6.00;;;;;;;23.16;42.50;101923.25;6138731;28;20235;-60
2021/06/10 06:16:51;;;;;;;6.68;5.88;;;;;;;23.41;41.96;101918.66;6142322;28;21023;-60
2021/06/10 06:20:13;;;;;;;7.03;5.50;;;;;;;23.42;41.64;101920.38;6136739;28;20983;-59
2021/06/10 06:23:34;;;;;;;6.03;5.38;;;;;;;23.03;41.72;101923.88;6141054;28;20512;-59
2021/06/10 06:26:54;;;;;;;5.50;5.00;;;;;;;23.41;41.37;101921.31;6144503;28;20231;-61
2021/06/10 06:30:17;;;;;;;6.90;5.22;;;;;;;23.52;41.40;101921.69;6138260;28;20288;-57
2021/06/10 06:33:38;;;;;;;5.25;4.28;;;;;;;23.92;41.44;101922.50;6142080;28;20239;-60
2021/06/10 06:36:59;;;;;;;5.10;4.60;;;;;;;24.50;40.41;101926.75;6145985;28;20527;-61
2021/06/10 06:40:24;;;;;;;6.63;5.65;;;;;;;23.95;39.19;101928.53;6142141;28;20328;-60
2021/06/10 06:43:44;;;;;;;5.65;4.75;;;;;;;23.75;39.56;101933.91;6141957;28;20756;-60
2021/06/10 06:47:06;;;;;;;3.75;3.45;;;;;;;24.16;39.41;101934.63;6140589;28;20234;-59
2021/06/10 06:50:27;;;;;;;4.00;3.25;;;;;;;24.52;38.80;101936.44;6138496;28;20239;-59
2021/06/10 06:53:49;;;;;;;4.30;3.90;;;;;;;24.88;37.15;101938.16;6141857;28;20235;-60
2021/06/10 06:57:09;;;;;;;4.82;4.05;;;;;;;24.78;37.20;101939.59;6148131;28;20318;-60
2021/06/10 07:00:30;;;;;;;6.47;4.93;;;;;;;24.32;37.43;101939.19;6140179;28;20572;-61
2021/06/10 07:03:52;;;;;;;7.05;4.47;;;;;;;25.02;36.66;101945.44;6142210;28;20612;-59
2021/06/10 07:07:12;;;;;;;5.22;4.45;;;;;;;25.03;36.71;101941.84;6141975;28;20226;-61
2021/06/10 07:10:33;;;;;;;6.50;4.93;;;;;;;24.40;36.76;101949.47;6137004;28;20234;-60
2021/06/10 07:13:53;;;;;;;3.72;3.40;;;;;;;24.86;37.73;101948.03;6134111;28;20245;-62
2021/06/10 07:17:13;;;;;;;3.70;2.78;;;;;;;25.47;36.26;101959.09;6142657;28;20656;-60
2021/06/10 07:20:35;;;;;;;7.82;5.28;;;;;;;25.01;34.58;101958.81;6143100;28;20250;-60
2021/06/10 07:23:56;;;;;;;6.57;4.47;;;;;;;24.89;34.92;101955.88;6145058;28;20680;-59
2021/06/10 07:27:17;;;;;;;4.82;4.22;;;;;;;24.44;36.03;101959.03;6141496;28;20617;-61
2021/06/10 07:30:37;;;;;;;4.15;3.00;;;;;;;25.20;36.08;101970.25;6143871;28;20226;-61
2021/06/10 07:33:58;;;;;;;5.32;4.35;;;;;;;24.53;36.83;101959.47;6142500;28;20849;-61
2021/06/10 07:37:20;;;;;;;7.88;3.42;;;;;;;24.96;35.56;101961.75;6144355;28;20518;-60
2021/06/10 07:40:42;;;;;;;6.45;4.07;;;;;;;25.21;34.50;101961.31;6146854;28;20230;-61
2021/06/10 07:44:03;;;;;;;4.50;4.03;;;;;;;25.57;34.16;101973.69;6142902;28;20314;-62
2021/06/10 07:47:23;;;;;;;4.13;3.60;;;;;;;25.74;33.98;101975.41;6140827;28;20254;-62
2021/06/10 07:50:44;;;;;;;6.15;4.18;;;;;;;25.79;34.65;101977.84;6139196;28;20617;-61
2021/06/10 07:54:06;;;;;;;3.38;2.83;;;;;;;25.96;35.60;101971.56;6139736;28;20243;-60
2021/06/10 07:57:27;;;;;;;6.55;5.15;;;;;;;25.93;33.68;101976.13;6139421;28;20227;-62
2021/06/10 08:00:47;;;;;;;6.80;5.18;;;;;;;26.06;33.41;101973.66;6146065;28;20226;-61
2021/06/10 08:04:08;;;;;;;7.13;6.00;;;;;;;25.57;33.67;101968.34;6138882;28;20242;-61
2021/06/10 08:07:28;;;;;;;7.10;4.50;;;;;;;25.66;34.77;101973.16;6139297;28;20242;-62
2021/06/10 08:10:50;;;;;;;7.88;5.85;;;;;;;25.79;33.05;101968.03;6138513;28;20230;-62
2021/06/10 08:14:11;;;;;;;5.70;3.72;;;;;;;26.22;35.23;101970.13;6143887;28;21265;-61
2021/06/10 08:17:35;;;;;;;4.80;4.30;;;;;;;26.68;34.89;101975.50;6150591;28;20242;-61
2021/06/10 08:20:56;;;;;;;4.88;3.03;;;;;;;26.89;34.72;101968.88;6146318;28;20235;-62
2021/06/10 08:24:16;;;;;;;4.30;3.25;;;;;;;26.82;34.75;101972.00;6141124;28;20230;-61
2021/06/10 08:27:39;;;;;;;5.45;4.80;;;;;;;26.43;33.52;101973.38;6140769;28;20521;-61
2021/06/10 08:30:59;;;;;;;8.63;5.60;;;;;;;26.15;33.19;101982.94;6143052;28;20246;-63
2021/06/10 08:34:20;;;;;;;5.75;5.10;;;;;;;25.61;33.88;101985.91;6147464;28;20231;-62
2021/06/10 08:37:41;;;;;;;5.88;5.30;;;;;;;26.25;35.16;101986.81;6149274;28;20256;-62
2021/06/10 08:41:02;;;;;;;6.05;5.45;;;;;;;26.79;34.12;101978.38;6137133;28;20258;-60
2021/06/10 08:44:25;;;;;;;7.72;6.68;;;;;;;26.16;33.71;101986.50;6144440;28;20515;-61
2021/06/10 08:47:48;;;;;;;8.15;7.28;;;;;;;25.17;35.51;101986.41;6148003;28;20239;-61
2021/06/10 08:51:09;;;;;;;7.07;6.47;;;;;;;25.95;35.05;101978.72;6146604;28;20234;-62
2021/06/10 08:54:30;;;;;;;7.43;6.72;;;;;;;26.71;34.08;101978.84;6137336;28;20519;-61
2021/06/10 08:57:51;;;;;;;7.45;6.85;;;;;;;26.49;33.66;101979.19;6143969;28;20231;-64
2021/06/10 09:01:15;;;;;;;8.43;5.40;;;;;;;27.02;34.13;101968.97;6142673;28;20223;-62
2021/06/10 09:04:36;;;;;;;7.05;6.40;;;;;;;27.52;32.51;101968.69;6145570;28;20613;-63
2021/06/10 09:07:58;;;;;;;6.13;5.50;;;;;;;27.39;33.12;101974.78;6144355;28;20238;-62
2021/06/10 09:11:21;;;;;;;10.18;9.20;;;;;;;27.50;32.92;101969.63;6148171;28;20230;-63
2021/06/10 09:14:54;;;;;;;9.75;8.95;;;;;;;27.55;33.21;101973.81;6148001;28;20238;-63
2021/06/10 09:18:29;;;;;;;9.10;8.27;;;;;;;27.59;33.07;101959.31;6156390;28;20312;-62
2021/06/10 09:21:57;;;;;;;8.55;7.75;;;;;;;27.71;33.35;101963.03;6146529;28;20243;-61
2021/06/10 09:25:20;;;;;;;7.85;7.13;;;;;;;27.69;33.37;101969.31;6142551;28;20234;-63
2021/06/10 09:28:42;;;;;;;11.07;10.07;;;;;;;27.25;32.52;101967.63;6127949;28;20267;-64
2021/06/10 09:32:03;;;;;;;11.73;10.68;;;;;;;25.66;34.60;101965.16;6151107;28;20330;-67
2021/06/10 09:35:29;;;;;;;11.13;10.20;;;;;;;25.83;35.47;101974.06;6142191;28;20231;-62
2021/06/10 09:39:06;;;;;;;12.63;11.73;;;;;;;27.48;32.49;101949.28;6146698;28;20625;-64
2021/06/10 09:42:31;;;;;;;7.70;7.00;;;;;;;27.87;32.99;101953.06;6150263;28;20250;-63
2021/06/10 09:45:53;;;;;;;10.43;9.55;;;;;;;27.79;32.72;101960.72;6151894;28;20221;-62
2021/06/10 09:49:13;;;;;;;11.82;10.75;;;;;;;27.31;33.48;101958.34;6141882;28;20234;-61
2021/06/10 09:52:44;;;;;;;8.55;7.70;;;;;;;28.30;32.71;101952.94;6149339;28;20636;-61
2021/06/10 09:56:06;;;;;;;7.78;7.07;;;;;;;29.02;31.83;101957.94;6148004;28;20317;-61
2021/06/10 09:59:44;;;;;;;9.75;8.95;;;;;;;28.24;31.99;101939.97;6146466;28;20337;-60
2021/06/10 10:03:05;;;;;;;9.95;9.13;;;;;;;27.81;33.27;101956.13;6135263;28;20227;-61
2021/06/10 10:06:27;;;;;;;11.77;10.80;;;;;;;27.07;33.88;101960.69;6139355;28;20238;-61
2021/06/10 10:09:49;;;;;;;12.07;10.95;;;;;;;26.13;35.19;101953.69;6149751;28;20266;-62
2021/06/10 10:13:14;;;;;;;10.90;10.00;;;;;;;26.73;35.00;101956.50;6145996;28;20239;-62
2021/06/10 10:16:36;;;;;;;10.93;9.82;;;;;;;27.16;34.12;101961.94;6143348;28;20239;-60
2021/06/10 10:19:57;;;;;;;10.65;9.60;;;;;;;27.30;33.84;101954.81;6141137;28;20235;-60
2021/06/10 10:23:17;;;;;;;12.27;11.05;;;;;;;27.08;34.21;101949.03;6139870;28;20230;-59
2021/06/10 10:26:41;;;;;;;12.73;9.32;;;;;;;27.07;34.55;101955.34;6151787;28;20604;-59
2021/06/10 10:30:03;;;;;;;10.55;9.75;;;;;;;27.16;34.14;101946.78;6140677;28;20234;-60
2021/06/10 10:33:25;;;;;;;11.88;10.80;;;;;;;27.45;33.90;101960.16;6128004;28;20226;-62
2021/06/10 10:36:45;;;;;;;10.70;9.90;;;;;;;27.16;34.60;101952.13;6147145;28;20250;-61
2021/06/10 10:40:10;;;;;;;12.00;9.90;;;;;;;27.02;35.06;101949.41;6147437;28;20254;-59
2021/06/10 10:43:32;;;;;;;8.27;7.03;;;;;;;27.65;34.42;101941.06;6130223;28;20641;-61
2021/06/10 10:47:03;;;;;;;7.57;6.97;;;;;;;27.73;34.38;101934.38;6147865;28;20318;-61
2021/06/10 10:50:36;;;;;;;10.25;9.45;;;;;;;27.87;33.86;101942.34;6146781;28;20234;-62
2021/06/10 10:53:59;;;;;;;10.73;9.65;;;;;;;28.07;33.53;101928.56;6143009;28;20326;-61
2021/06/10 10:57:39;;;;;;;11.20;10.25;;;;;;;28.35;33.26;101932.09;6143064;28;20246;-61
2021/06/10 11:01:05;;;;;;;10.40;9.52;;;;;;;27.27;34.32;101933.63;6143600;28;20227;-60
2021/06/10 11:04:48;;;;;;;9.55;8.85;;;;;;;28.22;33.00;101925.81;6160080;28;20257;-59
2021/06/10 11:08:09;;;;;;;9.45;8.55;;;;;;;28.44;32.12;101931.47;6136031;28;20238;-62
2021/06/10 11:11:48;;;;;;;9.10;8.40;;;;;;;27.43;33.08;101930.88;6137716;28;20241;-61
2021/06/10 11:15:33;;;;;;;11.98;11.00;;;;;;;25.83;35.10;101926.88;6143361;28;20637;-58
2021/06/10 11:18:57;;;;;;;13.65;9.45;;;;;;;27.17;33.61;101932.44;6141784;28;20830;-60
2021/06/10 11:22:33;;;;;;;12.40;11.25;;;;;;;26.62;34.57;101930.44;6144043;28;20249;-59
2021/06/10 11:25:56;;;;;;;8.05;7.38;;;;;;;28.26;32.89;101932.69;6145715;28;20501;-56
2021/06/10 11:29:17;;;;;;;7.57;6.97;;;;;;;28.73;31.76;101931.34;6139037;28;20230;-55
2021/06/10 11:32:59;;;;;;;7.28;6.70;;;;;;;28.91;30.80;101926.53;6146300;28;20234;-57
2021/06/10 11:36:22;;;;;;;7.90;7.30;;;;;;;28.95;30.62;101924.50;6145183;28;20242;-60
2021/06/10 11:39:42;;;;;;;8.80;8.00;;;;;;;29.05;29.76;101930.94;6145652;28;20667;-58
2021/06/10 11:43:05;;;;;;;9.05;8.35;;;;;;;29.04;29.27;101932.75;6137738;28;20226;-58
2021/06/10 11:46:31;;;;;;;9.13;8.43;;;;;;;28.54;30.08;101921.03;6151023;28;20844;-58
2021/06/10 11:49:52;;;;;;;9.00;8.10;;;;;;;27.62;30.19;101938.56;6134063;28;20235;-57
2021/06/10 11:53:18;;;;;;;8.27;7.57;;;;;;;28.56;28.88;101923.59;6145496;28;20235;-59
2021/06/10 11:56:39;;;;;;;6.60;5.97;;;;;;;29.28;29.02;101925.81;6143568;28;20333;-57
2021/06/10 12:00:13;;;;;;;6.07;5.68;;;;;;;29.13;29.69;101915.19;6151601;28;20239;-59
2021/06/10 12:03:35;;;;;;;8.00;7.28;;;;;;;29.10;28.72;101909.16;6146411;28;20242;-51
2021/06/10 12:07:05;;;;;;;13.10;4.82;;;;;;;29.59;28.33;101913.72;6140630;28;20230;-54
2021/06/10 12:10:27;;;;;;;8.63;6.53;;;;;;;29.02;28.07;101904.31;6144423;28;20230;-52
2021/06/10 12:13:52;;;;;;;7.28;6.68;;;;;;;29.23;28.95;101908.19;6146107;28;20709;-55
2021/06/10 12:17:12;;;;;;;6.10;5.53;;;;;;;29.34;29.50;101898.53;6148962;28;20670;-51
2021/06/10 12:20:35;;;;;;;8.38;7.57;;;;;;;27.59;30.11;101901.31;6149712;28;20227;-57
2021/06/10 12:23:59;;;;;;;8.00;7.32;;;;;;;27.97;29.91;101900.66;6150422;28;20585;-53
2021/06/10 12:27:22;;;;;;;7.32;5.22;;;;;;;29.21;29.86;101904.75;6144354;28;20617;-51
2021/06/10 12:30:42;;;;;;;6.47;5.95;;;;;;;29.62;28.79;101903.63;6140826;28;20544;-51
2021/06/10 12:34:04;;;;;;;5.57;5.13;;;;;;;29.93;28.16;101896.00;6142787;28;20231;-54
2021/06/10 12:37:25;;;;;;;5.13;4.60;;;;;;;30.17;28.56;101897.84;6141387;28;20517;-56
2021/06/10 12:40:48;;;;;;;7.15;6.15;;;;;;;30.11;28.16;101898.28;6145894;28;20585;-56
2021/06/10 12:44:12;;;;;;;7.25;6.65;;;;;;;29.35;28.48;101897.56;6147141;28;20261;-60
2021/06/10 12:47:33;;;;;;;8.15;7.35;;;;;;;29.72;28.22;101897.56;6145397;28;20601;-63
2021/06/10 12:51:31;;;;;;;7.13;5.90;;;;;;;29.76;28.73;101896.41;6146566;28;20647;-61
2021/06/10 12:54:58;;;;;;;7.35;6.85;;;;;;;30.02;29.14;101889.13;6143796;28;20682;-62
2021/06/10 12:58:19;;;;;;;8.85;8.25;;;;;;;29.02;29.27;101888.22;6145653;28;20277;-62
2021/06/10 13:02:05;;;;;;;9.00;8.18;;;;;;;29.92;28.23;101883.56;6142396;28;21006;-62
2021/06/10 13:05:25;;;;;;;7.07;6.55;;;;;;;29.59;29.29;101882.38;6152847;28;20540;-63
2021/06/10 13:08:46;;;;;;;7.63;6.97;;;;;;;29.42;29.43;101877.38;6135265;28;20237;-62
2021/06/10 13:12:14;;;;;;;6.60;6.00;;;;;;;30.60;28.08;101878.47;6146742;28;20628;-61
2021/06/10 13:15:35;;;;;;;8.73;8.13;;;;;;;31.01;26.83;101877.94;6142635;28;20226;-63
2021/06/10 13:18:57;;;;;;;10.70;9.80;;;;;;;28.53;29.24;101867.53;6136892;28;20235;-64
2021/06/10 13:22:17;;;;;;;7.25;6.57;;;;;;;30.49;27.51;101875.75;6144894;28;20223;-63
2021/06/10 13:25:38;;;;;;;11.20;10.30;;;;;;;30.11;27.26;101876.81;6141725;28;20266;-61
2021/06/10 13:29:03;;;;;;;9.23;8.43;;;;;;;31.96;25.63;101869.34;6140222;28;20230;-63
2021/06/10 13:32:25;;;;;;;11.25;10.27;;;;;;;28.18;31.00;101870.75;6110382;28;20326;-64
2021/06/10 13:35:49;;;;;;;6.80;6.20;;;;;;;31.77;26.31;101861.09;6129527;28;20258;-62
2021/06/10 13:39:10;;;;;;;7.93;7.28;;;;;;;33.16;24.57;101860.97;6078181;28;20594;-61
2021/06/10 13:42:32;;;;;;;6.53;5.97;;;;;;;33.17;24.74;101854.56;6134640;28;20560;-61
2021/06/10 13:45:52;;;;;;;7.35;5.68;;;;;;;33.74;25.04;101860.28;6136050;28;20235;-63
2021/06/10 13:49:13;;;;;;;7.43;6.70;;;;;;;33.11;25.33;101845.19;6146241;28;20482;-65
2021/06/10 13:52:35;;;;;;;7.78;7.28;;;;;;;32.31;26.11;101845.84;6144966;28;20227;-61
2021/06/10 13:55:56;;;;;;;7.75;7.20;;;;;;;31.70;27.00;101846.44;6153404;28;20569;-63
2021/06/10 13:59:16;;;;;;;6.75;6.15;;;;;;;32.11;27.00;101844.84;6143151;28;20234;-61
2021/06/10 14:02:37;;;;;;;12.02;9.80;;;;;;;32.32;26.07;101843.03;6150068;28;20219;-63
2021/06/10 14:05:58;;;;;;;10.93;10.10;;;;;;;32.46;26.40;101844.53;6162982;28;20250;-57
2021/06/10 14:09:19;;;;;;;8.50;7.70;;;;;;;31.36;28.05;101841.13;6138869;28;20243;-55
2021/06/10 14:12:40;;;;;;;8.57;7.93;;;;;;;31.62;27.60;101835.44;6141534;28;20234;-55
2021/06/10 14:16:00;;;;;;;9.77;9.07;;;;;;;31.07;26.64;101838.09;6146210;28;20238;-56
2021/06/10 14:19:21;;;;;;;8.60;7.90;;;;;;;29.29;29.59;101830.94;6152342;28;20239;-53
2021/06/10 14:22:42;;;;;;;8.35;7.75;;;;;;;28.99;30.88;101834.84;6146719;28;20250;-51
2021/06/10 14:26:04;;;;;;;8.18;7.43;;;;;;;29.67;29.86;101825.44;6144487;28;20235;-52
2021/06/10 14:29:39;;;;;;;7.95;7.18;;;;;;;30.05;29.28;101829.81;6149504;28;20235;-54
2021/06/10 14:33:01;;;;;;;7.63;6.95;;;;;;;30.18;29.55;101833.25;6145671;28;20246;-56
2021/06/10 14:36:21;;;;;;;9.38;7.80;;;;;;;30.30;28.79;101830.59;6146412;28;20539;-56
2021/06/10 14:39:42;;;;;;;7.53;6.88;;;;;;;29.84;28.64;101827.75;6155625;28;20238;-55
2021/06/10 14:43:04;;;;;;;8.05;7.40;;;;;;;29.83;29.08;101825.19;6145385;28;20319;-55
2021/06/10 14:46:25;;;;;;;6.72;6.18;;;;;;;30.76;27.30;101827.06;6143879;28;20247;-54
2021/06/10 14:49:45;;;;;;;7.25;6.65;;;;;;;31.59;26.31;101820.41;6153669;28;20238;-55
2021/06/10 14:53:06;;;;;;;9.23;7.05;;;;;;;32.10;26.86;101818.88;6149505;28;20820;-55
2021/06/10 14:56:26;;;;;;;8.60;7.80;;;;;;;31.58;26.70;101802.53;6143654;28;20697;-55
2021/06/10 14:59:48;;;;;;;5.93;5.28;;;;;;;31.86;27.07;101809.19;6145493;28;20238;-51
2021/06/10 15:03:09;;;;;;;8.20;7.53;;;;;;;31.35;27.59;101801.75;6156440;28;20673;-56
2021/06/10 15:06:29;;;;;;;7.93;7.30;;;;;;;30.46;28.86;101801.63;6147344;28;20239;-56
2021/06/10 15:09:50;;;;;;;8.32;7.57;;;;;;;30.61;28.21;101800.41;6153724;28;20230;-56
2021/06/10 15:13:10;;;;;;;8.02;7.43;;;;;;;30.02;28.49;101798.66;6149639;28;20247;-56
2021/06/10 15:16:32;;;;;;;8.73;7.88;;;;;;;30.04;29.23;101791.34;6156293;28;20696;-57
2021/06/10 15:19:53;;;;;;;8.43;7.70;;;;;;;29.36;30.20;101781.25;6145207;28;20231;-56
2021/06/10 15:23:13;;;;;;;10.95;9.88;;;;;;;29.30;30.10;101779.03;6137257;28;20235;-55
2021/06/10 15:26:34;;;;;;;9.05;8.13;;;;;;;29.55;29.94;101778.91;6137086;28;20234;-56
2021/06/10 15:29:54;;;;;;;8.40;7.53;;;;;;;30.49;29.01;101773.63;6142660;28;20230;-55
2021/06/10 15:33:16;;;;;;;9.90;9.00;;;;;;;31.24;27.78;101770.31;6134638;28;20234;-56
2021/06/10 15:36:37;;;;;;;7.15;6.65;;;;;;;31.49;28.00;101758.41;6144193;28;20234;-56
2021/06/10 15:39:58;;;;;;;7.03;6.32;;;;;;;31.80;27.53;101758.53;6139870;28;20231;-56